sensor_id;sensor_type;location;lat;lon;timestamp;temperature;humidity
19214;DHT22;9741;51.020;5.304;2024-01-11T00:00:25;-4.50;47.70
19214;DHT22;9741;51.020;5.304;2024-01-11T00:02:53;-4.50;47.70
19214;DHT22;9741;51.020;5.304;2024-01-11T00:05:20;-4.50;47.70
19214;DHT22;9741;51.020;5.304;2024-01-11T00:07:48;-4.50;47.70
19214;DHT22;9741;51.020;5.304;2024-01-11T00:10:15;-4.40;47.80
19214;DHT22;9741;51.020;5.304;2024-01-11T00:12:42;-4.40;47.90
19214;DHT22;9741;51.020;5.304;2024-01-11T00:15:12;-4.40;47.90
19214;DHT22;9741;51.020;5.304;2024-01-11T00:17:39;-4.40;47.90
19214;DHT22;9741;51.020;5.304;2024-01-11T00:20:08;-4.30;48.00
19214;DHT22;9741;51.020;5.304;2024-01-11T00:22:36;-4.30;47.90
19214;DHT22;9741;51.020;5.304;2024-01-11T00:25:03;-4.30;47.90
19214;DHT22;9741;51.020;5.304;2024-01-11T00:27:30;-4.30;47.90
19214;DHT22;9741;51.020;5.304;2024-01-11T00:29:57;-4.30;47.90
19214;DHT22;9741;51.020;5.304;2024-01-11T00:32:24;-4.30;48.00
19214;DHT22;9741;51.020;5.304;2024-01-11T00:34:51;-4.30;48.10
19214;DHT22;9741;51.020;5.304;2024-01-11T00:37:19;-4.30;48.10
19214;DHT22;9741;51.020;5.304;2024-01-11T00:39:46;-4.30;48.10
19214;DHT22;9741;51.020;5.304;2024-01-11T00:42:13;-4.30;48.00
19214;DHT22;9741;51.020;5.304;2024-01-11T00:44:40;-4.30;48.00
19214;DHT22;9741;51.020;5.304;2024-01-11T00:47:07;-4.30;48.20
19214;DHT22;9741;51.020;5.304;2024-01-11T00:49:33;-4.30;48.20
19214;DHT22;9741;51.020;5.304;2024-01-11T00:52:00;-4.20;48.90
19214;DHT22;9741;51.020;5.304;2024-01-11T00:54:29;-4.20;48.30
19214;DHT22;9741;51.020;5.304;2024-01-11T00:56:56;-4.20;48.30
19214;DHT22;9741;51.020;5.304;2024-01-11T00:59:23;-4.10;48.30
19214;DHT22;9741;51.020;5.304;2024-01-11T01:01:50;-4.10;48.40
19214;DHT22;9741;51.020;5.304;2024-01-11T01:04:17;-4.10;48.40
19214;DHT22;9741;51.020;5.304;2024-01-11T01:06:44;-4.10;48.40
19214;DHT22;9741;51.020;5.304;2024-01-11T01:09:11;-4.10;48.40
19214;DHT22;9741;51.020;5.304;2024-01-11T01:11:40;-4.10;48.40
19214;DHT22;9741;51.020;5.304;2024-01-11T01:14:07;-4.10;48.40
19214;DHT22;9741;51.020;5.304;2024-01-11T01:16:34;-4.10;48.40
19214;DHT22;9741;51.020;5.304;2024-01-11T01:19:01;-4.10;48.40
19214;DHT22;9741;51.020;5.304;2024-01-11T01:21:28;-4.10;48.50
19214;DHT22;9741;51.020;5.304;2024-01-11T01:23:54;-4.10;48.50
19214;DHT22;9741;51.020;5.304;2024-01-11T01:26:21;-4.10;48.40
19214;DHT22;9741;51.020;5.304;2024-01-11T01:28:50;-4.20;48.30
19214;DHT22;9741;51.020;5.304;2024-01-11T01:31:16;-4.20;48.40
19214;DHT22;9741;51.020;5.304;2024-01-11T01:33:43;-4.30;48.40
19214;DHT22;9741;51.020;5.304;2024-01-11T01:36:10;-4.30;48.40
19214;DHT22;9741;51.020;5.304;2024-01-11T01:38:37;-4.40;48.40
19214;DHT22;9741;51.020;5.304;2024-01-11T01:41:04;-4.50;48.40
19214;DHT22;9741;51.020;5.304;2024-01-11T01:43:31;-4.50;48.50
19214;DHT22;9741;51.020;5.304;2024-01-11T01:46:00;-4.50;48.50
19214;DHT22;9741;51.020;5.304;2024-01-11T01:48:28;-4.60;48.50
19214;DHT22;9741;51.020;5.304;2024-01-11T01:50:55;-4.60;48.50
19214;DHT22;9741;51.020;5.304;2024-01-11T01:53:23;-4.60;48.50
19214;DHT22;9741;51.020;5.304;2024-01-11T01:55:51;-4.60;48.50
19214;DHT22;9741;51.020;5.304;2024-01-11T01:58:19;-4.70;48.50
19214;DHT22;9741;51.020;5.304;2024-01-11T02:00:47;-4.70;48.50
19214;DHT22;9741;51.020;5.304;2024-01-11T02:03:17;-4.70;48.60
19214;DHT22;9741;51.020;5.304;2024-01-11T02:05:44;-4.70;48.60
19214;DHT22;9741;51.020;5.304;2024-01-11T02:08:16;-4.70;48.50
19214;DHT22;9741;51.020;5.304;2024-01-11T02:10:43;-4.70;48.60
19214;DHT22;9741;51.020;5.304;2024-01-11T02:13:11;-4.70;48.60
19214;DHT22;9741;51.020;5.304;2024-01-11T02:15:39;-4.70;48.60
19214;DHT22;9741;51.020;5.304;2024-01-11T02:18:06;-4.80;48.50
19214;DHT22;9741;51.020;5.304;2024-01-11T02:20:34;-4.80;48.60
19214;DHT22;9741;51.020;5.304;2024-01-11T02:23:05;-4.80;48.60
19214;DHT22;9741;51.020;5.304;2024-01-11T02:25:33;-4.80;48.60
19214;DHT22;9741;51.020;5.304;2024-01-11T02:28:00;-4.90;48.60
19214;DHT22;9741;51.020;5.304;2024-01-11T02:30:27;-4.90;48.60
19214;DHT22;9741;51.020;5.304;2024-01-11T02:32:54;-4.90;48.60
19214;DHT22;9741;51.020;5.304;2024-01-11T02:35:23;-4.90;48.60
19214;DHT22;9741;51.020;5.304;2024-01-11T02:37:50;-4.90;48.70
19214;DHT22;9741;51.020;5.304;2024-01-11T02:40:19;-5.00;48.60
19214;DHT22;9741;51.020;5.304;2024-01-11T02:42:47;-5.00;48.60
19214;DHT22;9741;51.020;5.304;2024-01-11T02:45:14;-5.00;48.70
19214;DHT22;9741;51.020;5.304;2024-01-11T02:47:41;-5.00;48.70
19214;DHT22;9741;51.020;5.304;2024-01-11T02:50:08;-5.00;48.70
19214;DHT22;9741;51.020;5.304;2024-01-11T02:52:37;-5.00;48.80
19214;DHT22;9741;51.020;5.304;2024-01-11T02:55:04;-5.00;48.80
19214;DHT22;9741;51.020;5.304;2024-01-11T02:57:31;-5.00;48.80
19214;DHT22;9741;51.020;5.304;2024-01-11T03:00:00;-5.00;48.90
19214;DHT22;9741;51.020;5.304;2024-01-11T03:02:27;-5.00;48.90
19214;DHT22;9741;51.020;5.304;2024-01-11T03:04:53;-5.10;48.80
19214;DHT22;9741;51.020;5.304;2024-01-11T03:07:20;-5.10;48.80
19214;DHT22;9741;51.020;5.304;2024-01-11T03:09:47;-5.10;48.80
19214;DHT22;9741;51.020;5.304;2024-01-11T03:12:14;-5.10;48.80
19214;DHT22;9741;51.020;5.304;2024-01-11T03:14:41;-5.10;48.80
19214;DHT22;9741;51.020;5.304;2024-01-11T03:17:09;-5.10;48.90
19214;DHT22;9741;51.020;5.304;2024-01-11T03:19:39;-5.10;48.90
19214;DHT22;9741;51.020;5.304;2024-01-11T03:22:07;-5.10;48.90
19214;DHT22;9741;51.020;5.304;2024-01-11T03:24:37;-5.20;48.80
19214;DHT22;9741;51.020;5.304;2024-01-11T03:27:05;-5.20;48.80
19214;DHT22;9741;51.020;5.304;2024-01-11T03:29:32;-5.20;48.90
19214;DHT22;9741;51.020;5.304;2024-01-11T03:31:59;-5.20;48.90
19214;DHT22;9741;51.020;5.304;2024-01-11T03:34:28;-5.30;48.80
19214;DHT22;9741;51.020;5.304;2024-01-11T03:36:54;-5.30;48.90
19214;DHT22;9741;51.020;5.304;2024-01-11T03:39:21;-5.30;48.90
19214;DHT22;9741;51.020;5.304;2024-01-11T03:41:48;-5.30;48.90
19214;DHT22;9741;51.020;5.304;2024-01-11T03:44:15;-5.30;48.90
19214;DHT22;9741;51.020;5.304;2024-01-11T03:46:42;-5.30;48.90
19214;DHT22;9741;51.020;5.304;2024-01-11T03:49:09;-5.40;48.90
19214;DHT22;9741;51.020;5.304;2024-01-11T03:51:37;-5.40;48.90
19214;DHT22;9741;51.020;5.304;2024-01-11T03:54:04;-5.40;48.90
19214;DHT22;9741;51.020;5.304;2024-01-11T03:56:31;-5.40;49.00
19214;DHT22;9741;51.020;5.304;2024-01-11T03:58:58;-5.50;48.90
19214;DHT22;9741;51.020;5.304;2024-01-11T04:01:25;-5.50;49.00
19214;DHT22;9741;51.020;5.304;2024-01-11T04:03:52;-5.50;49.10
19214;DHT22;9741;51.020;5.304;2024-01-11T04:06:19;-5.50;49.10
19214;DHT22;9741;51.020;5.304;2024-01-11T04:08:49;-5.50;49.10
19214;DHT22;9741;51.020;5.304;2024-01-11T04:11:16;-5.50;49.70
19214;DHT22;9741;51.020;5.304;2024-01-11T04:13:43;-5.50;49.10
19214;DHT22;9741;51.020;5.304;2024-01-11T04:16:10;-5.50;49.10
19214;DHT22;9741;51.020;5.304;2024-01-11T04:18:37;-5.50;49.10
19214;DHT22;9741;51.020;5.304;2024-01-11T04:21:04;-5.60;49.10
19214;DHT22;9741;51.020;5.304;2024-01-11T04:23:31;-5.60;49.10
19214;DHT22;9741;51.020;5.304;2024-01-11T04:25:59;-5.60;49.20
19214;DHT22;9741;51.020;5.304;2024-01-11T04:28:26;-5.60;49.10
19214;DHT22;9741;51.020;5.304;2024-01-11T04:30:53;-5.60;49.20
19214;DHT22;9741;51.020;5.304;2024-01-11T04:33:20;-5.60;49.20
19214;DHT22;9741;51.020;5.304;2024-01-11T04:35:46;-5.60;49.20
19214;DHT22;9741;51.020;5.304;2024-01-11T04:38:13;-5.60;49.20
19214;DHT22;9741;51.020;5.304;2024-01-11T04:40:40;-5.60;49.30
19214;DHT22;9741;51.020;5.304;2024-01-11T04:43:10;-5.60;49.40
19214;DHT22;9741;51.020;5.304;2024-01-11T04:45:37;-5.50;49.50
19214;DHT22;9741;51.020;5.304;2024-01-11T04:48:04;-5.50;49.50
19214;DHT22;9741;51.020;5.304;2024-01-11T04:50:31;-5.40;49.70
19214;DHT22;9741;51.020;5.304;2024-01-11T04:52:58;-5.30;49.80
19214;DHT22;9741;51.020;5.304;2024-01-11T04:55:25;-5.30;49.80
19214;DHT22;9741;51.020;5.304;2024-01-11T04:57:52;-5.30;49.70
19214;DHT22;9741;51.020;5.304;2024-01-11T05:00:20;-5.20;49.80
19214;DHT22;9741;51.020;5.304;2024-01-11T05:02:47;-5.20;49.80
19214;DHT22;9741;51.020;5.304;2024-01-11T05:05:14;-5.20;49.80
19214;DHT22;9741;51.020;5.304;2024-01-11T05:07:41;-5.20;49.80
19214;DHT22;9741;51.020;5.304;2024-01-11T05:10:08;-5.20;49.80
19214;DHT22;9741;51.020;5.304;2024-01-11T05:12:35;-5.10;49.90
19214;DHT22;9741;51.020;5.304;2024-01-11T05:15:04;-5.10;50.00
19214;DHT22;9741;51.020;5.304;2024-01-11T05:17:33;-5.10;50.00
19214;DHT22;9741;51.020;5.304;2024-01-11T05:20:00;-5.10;50.00
19214;DHT22;9741;51.020;5.304;2024-01-11T05:22:28;-5.10;49.90
19214;DHT22;9741;51.020;5.304;2024-01-11T05:24:55;-5.10;50.00
19214;DHT22;9741;51.020;5.304;2024-01-11T05:27:21;-5.10;50.00
19214;DHT22;9741;51.020;5.304;2024-01-11T05:29:48;-5.10;50.00
19214;DHT22;9741;51.020;5.304;2024-01-11T05:32:15;-5.10;50.10
19214;DHT22;9741;51.020;5.304;2024-01-11T05:34:46;-5.10;50.10
19214;DHT22;9741;51.020;5.304;2024-01-11T05:37:12;-5.10;50.10
19214;DHT22;9741;51.020;5.304;2024-01-11T05:39:40;-5.20;50.00
19214;DHT22;9741;51.020;5.304;2024-01-11T05:42:07;-5.20;50.10
19214;DHT22;9741;51.020;5.304;2024-01-11T05:44:33;-5.20;50.10
19214;DHT22;9741;51.020;5.304;2024-01-11T05:47:00;-5.20;50.20
19214;DHT22;9741;51.020;5.304;2024-01-11T05:49:27;-5.20;50.30
19214;DHT22;9741;51.020;5.304;2024-01-11T05:51:55;-5.10;50.40
19214;DHT22;9741;51.020;5.304;2024-01-11T05:54:22;-5.10;50.40
19214;DHT22;9741;51.020;5.304;2024-01-11T05:56:51;-5.10;50.40
19214;DHT22;9741;51.020;5.304;2024-01-11T05:59:21;-5.00;50.50
19214;DHT22;9741;51.020;5.304;2024-01-11T06:01:48;-5.00;50.50
19214;DHT22;9741;51.020;5.304;2024-01-11T06:04:15;-5.00;50.50
19214;DHT22;9741;51.020;5.304;2024-01-11T06:06:42;-5.00;50.40
19214;DHT22;9741;51.020;5.304;2024-01-11T06:09:10;-5.00;50.40
19214;DHT22;9741;51.020;5.304;2024-01-11T06:11:37;-5.00;50.40
19214;DHT22;9741;51.020;5.304;2024-01-11T06:14:05;-5.00;50.40
19214;DHT22;9741;51.020;5.304;2024-01-11T06:16:32;-5.00;50.40
19214;DHT22;9741;51.020;5.304;2024-01-11T06:18:59;-5.10;50.40
19214;DHT22;9741;51.020;5.304;2024-01-11T06:21:26;-5.00;50.50
19214;DHT22;9741;51.020;5.304;2024-01-11T06:23:54;-5.00;50.60
19214;DHT22;9741;51.020;5.304;2024-01-11T06:26:22;-5.00;50.70
19214;DHT22;9741;51.020;5.304;2024-01-11T06:28:49;-5.00;50.70
19214;DHT22;9741;51.020;5.304;2024-01-11T06:31:16;-5.00;50.70
19214;DHT22;9741;51.020;5.304;2024-01-11T06:33:43;-5.00;50.70
19214;DHT22;9741;51.020;5.304;2024-01-11T06:36:10;-5.00;50.70
19214;DHT22;9741;51.020;5.304;2024-01-11T06:38:37;-5.00;50.70
19214;DHT22;9741;51.020;5.304;2024-01-11T06:41:04;-5.10;50.60
19214;DHT22;9741;51.020;5.304;2024-01-11T06:43:32;-5.10;50.60
19214;DHT22;9741;51.020;5.304;2024-01-11T06:46:03;-5.10;50.70
19214;DHT22;9741;51.020;5.304;2024-01-11T06:48:30;-5.10;50.70
19214;DHT22;9741;51.020;5.304;2024-01-11T06:50:57;-5.10;50.70
19214;DHT22;9741;51.020;5.304;2024-01-11T06:53:24;-5.10;50.80
19214;DHT22;9741;51.020;5.304;2024-01-11T06:55:51;-5.20;50.70
19214;DHT22;9741;51.020;5.304;2024-01-11T06:58:20;-5.20;50.70
19214;DHT22;9741;51.020;5.304;2024-01-11T07:00:49;-5.30;50.70
19214;DHT22;9741;51.020;5.304;2024-01-11T07:03:17;-5.30;50.80
19214;DHT22;9741;51.020;5.304;2024-01-11T07:05:44;-5.30;50.90
19214;DHT22;9741;51.020;5.304;2024-01-11T07:08:11;-5.30;50.80
19214;DHT22;9741;51.020;5.304;2024-01-11T07:10:38;-5.40;50.70
19214;DHT22;9741;51.020;5.304;2024-01-11T07:13:05;-5.40;50.80
19214;DHT22;9741;51.020;5.304;2024-01-11T07:15:32;-5.50;50.70
19214;DHT22;9741;51.020;5.304;2024-01-11T07:18:00;-5.50;50.70
19214;DHT22;9741;51.020;5.304;2024-01-11T07:20:28;-5.60;50.60
19214;DHT22;9741;51.020;5.304;2024-01-11T07:22:55;-5.70;50.50
19214;DHT22;9741;51.020;5.304;2024-01-11T07:25:22;-5.70;50.60
19214;DHT22;9741;51.020;5.304;2024-01-11T07:27:50;-5.80;50.60
19214;DHT22;9741;51.020;5.304;2024-01-11T07:30:17;-5.80;50.70
19214;DHT22;9741;51.020;5.304;2024-01-11T07:32:45;-5.90;50.60
19214;DHT22;9741;51.020;5.304;2024-01-11T07:35:15;-5.90;50.70
19214;DHT22;9741;51.020;5.304;2024-01-11T07:37:42;-6.00;50.70
19214;DHT22;9741;51.020;5.304;2024-01-11T07:40:10;-6.00;50.70
19214;DHT22;9741;51.020;5.304;2024-01-11T07:42:39;-6.10;50.60
19214;DHT22;9741;51.020;5.304;2024-01-11T07:45:07;-6.10;50.70
19214;DHT22;9741;51.020;5.304;2024-01-11T07:47:36;-6.10;50.80
19214;DHT22;9741;51.020;5.304;2024-01-11T07:50:04;-6.20;50.70
19214;DHT22;9741;51.020;5.304;2024-01-11T07:52:33;-6.20;50.70
19214;DHT22;9741;51.020;5.304;2024-01-11T07:55:00;-6.20;50.70
19214;DHT22;9741;51.020;5.304;2024-01-11T07:57:32;-6.20;50.80
19214;DHT22;9741;51.020;5.304;2024-01-11T08:00:01;-6.20;50.80
19214;DHT22;9741;51.020;5.304;2024-01-11T08:02:29;-6.20;50.90
19214;DHT22;9741;51.020;5.304;2024-01-11T08:04:56;-6.20;50.80
19214;DHT22;9741;51.020;5.304;2024-01-11T08:07:24;-6.20;50.90
19214;DHT22;9741;51.020;5.304;2024-01-11T08:09:52;-6.20;50.90
19214;DHT22;9741;51.020;5.304;2024-01-11T08:12:20;-6.20;50.90
19214;DHT22;9741;51.020;5.304;2024-01-11T08:14:47;-6.20;50.90
19214;DHT22;9741;51.020;5.304;2024-01-11T08:17:15;-6.20;50.90
19214;DHT22;9741;51.020;5.304;2024-01-11T08:19:42;-6.20;50.90
19214;DHT22;9741;51.020;5.304;2024-01-11T08:22:10;-6.10;51.00
19214;DHT22;9741;51.020;5.304;2024-01-11T08:24:37;-6.10;51.00
19214;DHT22;9741;51.020;5.304;2024-01-11T08:27:05;-6.10;51.00
19214;DHT22;9741;51.020;5.304;2024-01-11T08:29:32;-6.10;51.60
19214;DHT22;9741;51.020;5.304;2024-01-11T08:31:59;-6.00;51.10
19214;DHT22;9741;51.020;5.304;2024-01-11T08:34:32;-6.00;51.10
19214;DHT22;9741;51.020;5.304;2024-01-11T08:36:59;-5.90;51.20
19214;DHT22;9741;51.020;5.304;2024-01-11T08:39:26;-5.90;51.20
19214;DHT22;9741;51.020;5.304;2024-01-11T08:41:53;-5.80;51.20
19214;DHT22;9741;51.020;5.304;2024-01-11T08:44:21;-5.70;51.30
19214;DHT22;9741;51.020;5.304;2024-01-11T08:46:48;-5.70;51.40
19214;DHT22;9741;51.020;5.304;2024-01-11T08:49:15;-5.60;51.40
19214;DHT22;9741;51.020;5.304;2024-01-11T08:51:42;-5.50;51.50
19214;DHT22;9741;51.020;5.304;2024-01-11T08:54:09;-5.40;52.10
19214;DHT22;9741;51.020;5.304;2024-01-11T08:56:37;-5.30;51.60
19214;DHT22;9741;51.020;5.304;2024-01-11T08:59:05;-5.20;51.60
19214;DHT22;9741;51.020;5.304;2024-01-11T09:01:35;-5.20;51.60
19214;DHT22;9741;51.020;5.304;2024-01-11T09:04:03;-5.10;51.60
19214;DHT22;9741;51.020;5.304;2024-01-11T09:06:30;-5.00;51.70
19214;DHT22;9741;51.020;5.304;2024-01-11T09:08:57;-4.90;51.70
19214;DHT22;9741;51.020;5.304;2024-01-11T09:11:24;-4.90;51.70
19214;DHT22;9741;51.020;5.304;2024-01-11T09:13:51;-4.80;51.80
19214;DHT22;9741;51.020;5.304;2024-01-11T09:16:18;-4.70;51.90
19214;DHT22;9741;51.020;5.304;2024-01-11T09:18:47;-4.60;51.90
19214;DHT22;9741;51.020;5.304;2024-01-11T09:21:13;-4.50;52.00
19214;DHT22;9741;51.020;5.304;2024-01-11T09:23:40;-4.40;52.00
19214;DHT22;9741;51.020;5.304;2024-01-11T09:26:07;-4.30;52.00
19214;DHT22;9741;51.020;5.304;2024-01-11T09:28:34;-4.30;52.00
19214;DHT22;9741;51.020;5.304;2024-01-11T09:31:01;-4.20;52.10
19214;DHT22;9741;51.020;5.304;2024-01-11T09:33:28;-4.10;52.10
19214;DHT22;9741;51.020;5.304;2024-01-11T09:35:56;-4.10;52.10
19214;DHT22;9741;51.020;5.304;2024-01-11T09:38:23;-4.00;52.10
19214;DHT22;9741;51.020;5.304;2024-01-11T09:40:59;-4.00;52.10
19214;DHT22;9741;51.020;5.304;2024-01-11T09:43:33;-3.90;52.30
19214;DHT22;9741;51.020;5.304;2024-01-11T09:46:03;-3.80;52.40
19214;DHT22;9741;51.020;5.304;2024-01-11T09:48:32;-3.80;52.40
19214;DHT22;9741;51.020;5.304;2024-01-11T09:51:01;-3.70;52.40
19214;DHT22;9741;51.020;5.304;2024-01-11T09:53:29;-3.60;52.50
19214;DHT22;9741;51.020;5.304;2024-01-11T09:55:58;-3.50;52.60
19214;DHT22;9741;51.020;5.304;2024-01-11T09:58:25;-3.40;52.60
19214;DHT22;9741;51.020;5.304;2024-01-11T10:00:54;-3.30;52.70
19214;DHT22;9741;51.020;5.304;2024-01-11T10:03:23;-3.20;52.70
19214;DHT22;9741;51.020;5.304;2024-01-11T10:05:50;-3.10;52.80
19214;DHT22;9741;51.020;5.304;2024-01-11T10:08:20;-3.10;52.70
19214;DHT22;9741;51.020;5.304;2024-01-11T10:10:48;-3.00;52.80
19214;DHT22;9741;51.020;5.304;2024-01-11T10:13:15;-2.90;53.00
19214;DHT22;9741;51.020;5.304;2024-01-11T10:15:42;-2.80;52.90
19214;DHT22;9741;51.020;5.304;2024-01-11T10:18:09;-2.70;53.00
19214;DHT22;9741;51.020;5.304;2024-01-11T10:20:37;-2.60;53.10
19214;DHT22;9741;51.020;5.304;2024-01-11T10:23:04;-2.50;53.70
19214;DHT22;9741;51.020;5.304;2024-01-11T10:25:33;-2.40;53.20
19214;DHT22;9741;51.020;5.304;2024-01-11T10:28:01;-2.30;53.60
19214;DHT22;9741;51.020;5.304;2024-01-11T10:30:28;-2.20;53.30
19214;DHT22;9741;51.020;5.304;2024-01-11T10:32:57;-2.10;53.30
19214;DHT22;9741;51.020;5.304;2024-01-11T10:35:24;-2.00;53.30
19214;DHT22;9741;51.020;5.304;2024-01-11T10:37:52;-1.90;53.30
19214;DHT22;9741;51.020;5.304;2024-01-11T10:40:20;-1.70;53.40
19214;DHT22;9741;51.020;5.304;2024-01-11T10:42:52;-1.60;53.50
19214;DHT22;9741;51.020;5.304;2024-01-11T10:45:21;-1.60;53.40
19214;DHT22;9741;51.020;5.304;2024-01-11T10:47:51;-1.40;53.50
19214;DHT22;9741;51.020;5.304;2024-01-11T10:50:30;-1.40;53.40
19214;DHT22;9741;51.020;5.304;2024-01-11T10:53:08;-1.30;53.40
19214;DHT22;9741;51.020;5.304;2024-01-11T10:55:39;-1.20;53.40
19214;DHT22;9741;51.020;5.304;2024-01-11T10:58:10;-1.10;53.40
19214;DHT22;9741;51.020;5.304;2024-01-11T11:00:37;-1.00;53.50
19214;DHT22;9741;51.020;5.304;2024-01-11T11:03:05;-0.90;53.50
19214;DHT22;9741;51.020;5.304;2024-01-11T11:05:34;-0.90;53.40
19214;DHT22;9741;51.020;5.304;2024-01-11T11:08:02;-0.80;53.40
19214;DHT22;9741;51.020;5.304;2024-01-11T11:10:32;-0.70;53.50
19214;DHT22;9741;51.020;5.304;2024-01-11T11:13:00;-0.60;53.50
19214;DHT22;9741;51.020;5.304;2024-01-11T11:15:29;-0.50;53.40
19214;DHT22;9741;51.020;5.304;2024-01-11T11:17:56;-0.40;53.30
19214;DHT22;9741;51.020;5.304;2024-01-11T11:20:23;-0.30;53.20
19214;DHT22;9741;51.020;5.304;2024-01-11T11:23:03;-0.20;53.20
19214;DHT22;9741;51.020;5.304;2024-01-11T11:25:30;-0.10;53.70
19214;DHT22;9741;51.020;5.304;2024-01-11T11:27:58;-0.10;53.10
19214;DHT22;9741;51.020;5.304;2024-01-11T11:30:28;0.00;53.10
19214;DHT22;9741;51.020;5.304;2024-01-11T11:32:55;0.10;53.00
19214;DHT22;9741;51.020;5.304;2024-01-11T11:35:23;0.20;52.90
19214;DHT22;9741;51.020;5.304;2024-01-11T11:37:55;0.20;53.40
19214;DHT22;9741;51.020;5.304;2024-01-11T11:40:32;0.30;53.30
19214;DHT22;9741;51.020;5.304;2024-01-11T11:43:01;0.40;52.80
19214;DHT22;9741;51.020;5.304;2024-01-11T11:45:32;0.40;52.70
19214;DHT22;9741;51.020;5.304;2024-01-11T11:47:59;0.50;52.60
19214;DHT22;9741;51.020;5.304;2024-01-11T11:50:26;0.50;52.50
19214;DHT22;9741;51.020;5.304;2024-01-11T11:53:02;0.60;52.40
19214;DHT22;9741;51.020;5.304;2024-01-11T11:55:32;0.70;52.40
19214;DHT22;9741;51.020;5.304;2024-01-11T11:58:01;0.80;52.30
19214;DHT22;9741;51.020;5.304;2024-01-11T12:00:28;0.80;52.10
19214;DHT22;9741;51.020;5.304;2024-01-11T12:03:02;0.90;52.10
19214;DHT22;9741;51.020;5.304;2024-01-11T12:05:29;1.00;52.10
19214;DHT22;9741;51.020;5.304;2024-01-11T12:07:56;1.00;51.80
19214;DHT22;9741;51.020;5.304;2024-01-11T12:10:23;1.00;51.60
19214;DHT22;9741;51.020;5.304;2024-01-11T12:12:50;1.10;51.50
19214;DHT22;9741;51.020;5.304;2024-01-11T12:15:17;1.10;51.40
19214;DHT22;9741;51.020;5.304;2024-01-11T12:17:44;1.20;51.40
19214;DHT22;9741;51.020;5.304;2024-01-11T12:20:14;1.20;51.30
19214;DHT22;9741;51.020;5.304;2024-01-11T12:22:42;1.30;51.30
19214;DHT22;9741;51.020;5.304;2024-01-11T12:25:09;1.30;51.20
19214;DHT22;9741;51.020;5.304;2024-01-11T12:27:37;1.40;51.20
19214;DHT22;9741;51.020;5.304;2024-01-11T12:30:06;1.40;51.10
19214;DHT22;9741;51.020;5.304;2024-01-11T12:32:36;1.50;51.10
19214;DHT22;9741;51.020;5.304;2024-01-11T12:35:04;1.50;50.90
19214;DHT22;9741;51.020;5.304;2024-01-11T12:37:32;1.60;50.90
19214;DHT22;9741;51.020;5.304;2024-01-11T12:39:59;1.60;50.80
19214;DHT22;9741;51.020;5.304;2024-01-11T12:42:27;1.60;50.70
19214;DHT22;9741;51.020;5.304;2024-01-11T12:44:53;1.70;50.50
19214;DHT22;9741;51.020;5.304;2024-01-11T12:47:21;1.70;50.40
19214;DHT22;9741;51.020;5.304;2024-01-11T12:49:49;1.70;50.30
19214;DHT22;9741;51.020;5.304;2024-01-11T12:52:17;1.80;50.30
19214;DHT22;9741;51.020;5.304;2024-01-11T12:54:46;1.80;50.20
19214;DHT22;9741;51.020;5.304;2024-01-11T12:57:17;1.80;50.10
19214;DHT22;9741;51.020;5.304;2024-01-11T12:59:45;1.80;50.00
19214;DHT22;9741;51.020;5.304;2024-01-11T13:02:12;1.80;50.00
19214;DHT22;9741;51.020;5.304;2024-01-11T13:04:40;1.90;49.90
19214;DHT22;9741;51.020;5.304;2024-01-11T13:07:07;1.90;49.90
19214;DHT22;9741;51.020;5.304;2024-01-11T13:09:34;1.90;49.80
19214;DHT22;9741;51.020;5.304;2024-01-11T13:12:03;1.90;49.70
19214;DHT22;9741;51.020;5.304;2024-01-11T13:14:30;2.00;49.80
19214;DHT22;9741;51.020;5.304;2024-01-11T13:16:57;2.00;49.70
19214;DHT22;9741;51.020;5.304;2024-01-11T13:19:24;2.00;49.70
19214;DHT22;9741;51.020;5.304;2024-01-11T13:21:51;2.10;49.70
19214;DHT22;9741;51.020;5.304;2024-01-11T13:24:18;2.10;49.70
19214;DHT22;9741;51.020;5.304;2024-01-11T13:26:45;2.10;49.60
19214;DHT22;9741;51.020;5.304;2024-01-11T13:29:14;2.10;49.50
19214;DHT22;9741;51.020;5.304;2024-01-11T13:31:40;2.20;49.60
19214;DHT22;9741;51.020;5.304;2024-01-11T13:34:07;2.20;49.50
19214;DHT22;9741;51.020;5.304;2024-01-11T13:36:34;2.20;49.40
19214;DHT22;9741;51.020;5.304;2024-01-11T13:39:01;2.20;49.40
19214;DHT22;9741;51.020;5.304;2024-01-11T13:41:28;2.20;49.30
19214;DHT22;9741;51.020;5.304;2024-01-11T13:43:55;2.30;49.20
19214;DHT22;9741;51.020;5.304;2024-01-11T13:46:24;2.30;49.20
19214;DHT22;9741;51.020;5.304;2024-01-11T13:48:51;2.30;49.00
19214;DHT22;9741;51.020;5.304;2024-01-11T13:51:18;2.30;48.90
19214;DHT22;9741;51.020;5.304;2024-01-11T13:53:45;2.30;48.80
19214;DHT22;9741;51.020;5.304;2024-01-11T13:56:13;2.30;48.80
19214;DHT22;9741;51.020;5.304;2024-01-11T13:58:40;2.30;48.80
19214;DHT22;9741;51.020;5.304;2024-01-11T14:01:07;2.40;48.80
19214;DHT22;9741;51.020;5.304;2024-01-11T14:03:35;2.30;48.70
19214;DHT22;9741;51.020;5.304;2024-01-11T14:06:03;2.30;48.60
19214;DHT22;9741;51.020;5.304;2024-01-11T14:08:30;2.30;48.60
19214;DHT22;9741;51.020;5.304;2024-01-11T14:10:57;2.30;48.60
19214;DHT22;9741;51.020;5.304;2024-01-11T14:13:23;2.30;48.60
19214;DHT22;9741;51.020;5.304;2024-01-11T14:15:50;2.30;48.60
19214;DHT22;9741;51.020;5.304;2024-01-11T14:18:19;2.30;48.60
19214;DHT22;9741;51.020;5.304;2024-01-11T14:20:48;2.30;48.50
19214;DHT22;9741;51.020;5.304;2024-01-11T14:23:15;2.30;48.50
19214;DHT22;9741;51.020;5.304;2024-01-11T14:25:42;2.30;48.50
19214;DHT22;9741;51.020;5.304;2024-01-11T14:28:09;2.30;48.80
19214;DHT22;9741;51.020;5.304;2024-01-11T14:30:36;2.30;48.50
19214;DHT22;9741;51.020;5.304;2024-01-11T14:33:04;2.20;48.40
19214;DHT22;9741;51.020;5.304;2024-01-11T14:35:31;2.20;48.40
19214;DHT22;9741;51.020;5.304;2024-01-11T14:37:59;2.20;48.30
19214;DHT22;9741;51.020;5.304;2024-01-11T14:40:26;2.20;48.20
19214;DHT22;9741;51.020;5.304;2024-01-11T14:42:53;2.20;48.10
19214;DHT22;9741;51.020;5.304;2024-01-11T14:45:21;2.20;48.10
19214;DHT22;9741;51.020;5.304;2024-01-11T14:47:49;2.10;47.90
19214;DHT22;9741;51.020;5.304;2024-01-11T14:50:16;2.10;47.90
19214;DHT22;9741;51.020;5.304;2024-01-11T14:52:43;2.00;47.80
19214;DHT22;9741;51.020;5.304;2024-01-11T14:55:11;2.00;47.80
19214;DHT22;9741;51.020;5.304;2024-01-11T14:57:39;1.90;47.80
19214;DHT22;9741;51.020;5.304;2024-01-11T15:00:09;1.90;47.90
19214;DHT22;9741;51.020;5.304;2024-01-11T15:02:37;1.80;47.80
19214;DHT22;9741;51.020;5.304;2024-01-11T15:05:07;1.80;47.80
19214;DHT22;9741;51.020;5.304;2024-01-11T15:07:34;1.70;47.80
19214;DHT22;9741;51.020;5.304;2024-01-11T15:10:01;1.60;47.80
19214;DHT22;9741;51.020;5.304;2024-01-11T15:12:29;1.60;47.80
19214;DHT22;9741;51.020;5.304;2024-01-11T15:14:56;1.50;47.70
19214;DHT22;9741;51.020;5.304;2024-01-11T15:17:24;1.50;47.80
19214;DHT22;9741;51.020;5.304;2024-01-11T15:19:50;1.40;47.70
19214;DHT22;9741;51.020;5.304;2024-01-11T15:22:18;1.40;47.70
19214;DHT22;9741;51.020;5.304;2024-01-11T15:24:46;1.30;47.70
19214;DHT22;9741;51.020;5.304;2024-01-11T15:27:18;1.30;47.70
19214;DHT22;9741;51.020;5.304;2024-01-11T15:29:47;1.30;47.70
19214;DHT22;9741;51.020;5.304;2024-01-11T15:32:15;1.20;47.70
19214;DHT22;9741;51.020;5.304;2024-01-11T15:34:43;1.10;47.60
19214;DHT22;9741;51.020;5.304;2024-01-11T15:37:10;1.10;47.70
19214;DHT22;9741;51.020;5.304;2024-01-11T15:39:37;1.00;47.60
19214;DHT22;9741;51.020;5.304;2024-01-11T15:42:05;1.00;47.60
19214;DHT22;9741;51.020;5.304;2024-01-11T15:44:35;0.90;47.60
19214;DHT22;9741;51.020;5.304;2024-01-11T15:47:06;0.90;47.70
19214;DHT22;9741;51.020;5.304;2024-01-11T15:49:36;0.80;47.60
19214;DHT22;9741;51.020;5.304;2024-01-11T15:52:03;0.80;47.60